MV Sea Wolf — WCW6738 — position and weather

sailwx.info

Track history (hours):
 
Tides and Currents Weather Stations Pressure Air Temp Water Temp Dewpoint Dewpoint Depression Visibility Wind Speed Wind Dir Waves Ship Positions

MV Sea Wolf

Owner: SEA WOLF MARINE TOWING & TRANSPORTATION, Bayonne, NJ. More information available from US FCC via Universal Licensing System and Coast Guard Vessel Documentation Center.

Last reported at 2014-Nov-23 14:33 UTC. Time now 2014-Nov-23 14:50 UTC.
Position N 40°51' W 072°29'.

Length 66 m; draft 10 m.

MMSI: 367002350.

Date/timePositionNaut miles runAvg speedWind from/ knotsBaromVisibWave heightAir tempDewpointWater temp
2014-Nov-23 14:33N 40°51' W 072°29'0 0.0
2014-Nov-23 13:33N 40°51' W 072°29'0 0.0
2014-Nov-23 12:33N 40°51' W 072°29'0 0.0
2014-Nov-23 11:33N 40°51' W 072°29'0 0.0
2014-Nov-23 10:33N 40°51' W 072°29'0 0.0
2014-Nov-23 09:33N 40°51' W 072°29'0 0.0
2014-Nov-23 08:33N 40°51' W 072°29'0 0.0
2014-Nov-23 07:33N 40°51' W 072°29'0 0.0
2014-Nov-23 06:33N 40°51' W 072°29'0 0.0
2014-Nov-23 05:33N 40°51' W 072°29'0 0.0
2014-Nov-23 04:33N 40°51' W 072°29'0 0.0
2014-Nov-23 03:33N 40°51' W 072°29'0 0.0
2014-Nov-23 02:33N 40°51' W 072°29'0 0.0
2014-Nov-23 01:33N 40°51' W 072°29'0 0.0
2014-Nov-23 00:33N 40°51' W 072°29'0 0.0
2014-Nov-22 23:33N 40°51' W 072°29'0 0.0
2014-Nov-22 22:33N 40°51' W 072°29'0 0.0
2014-Nov-22 21:33N 40°51' W 072°29'0 0.0
2014-Nov-22 20:33N 40°51' W 072°29'0 0.0
2014-Nov-22 19:33N 40°51' W 072°29'0 0.0
2014-Nov-22 18:33N 40°51' W 072°29'0 0.0
2014-Nov-22 17:33N 40°51' W 072°29'1 1.1
2014-Nov-22 16:33N 40°50' W 072°29'5 5.0
2014-Nov-22 15:33N 40°48' W 072°35'5 5.1
2014-Nov-22 14:32N 40°46' W 072°41'0 0.0
2014-Nov-22 13:33N 40°46' W 072°41'0 0.0
2014-Nov-22 12:33N 40°46' W 072°41'4 3.6
2014-Nov-22 11:33N 40°47' W 072°37'6 5.6
2014-Nov-22 10:33N 40°49' W 072°30'2 1.6
2014-Nov-22 09:33N 40°51' W 072°29'0 0.0
2014-Nov-22 08:33N 40°51' W 072°29'0 0.0
2014-Nov-22 07:33N 40°51' W 072°29'0 0.0
2014-Nov-22 06:34N 40°51' W 072°29'0 0.0
2014-Nov-22 05:33N 40°51' W 072°29'0 0.0
2014-Nov-22 04:34N 40°51' W 072°29'0 0.0
2014-Nov-22 03:33N 40°51' W 072°29'0 0.0
2014-Nov-22 02:33N 40°51' W 072°29'0 0.0
2014-Nov-22 01:33N 40°51' W 072°29'0 0.0
2014-Nov-22 00:33N 40°51' W 072°29'0 0.0
2014-Nov-21 23:33N 40°51' W 072°29'0 0.0
2014-Nov-21 22:33N 40°51' W 072°29'0 0.4
2014-Nov-21 21:34N 40°51' W 072°29'0 0.0
2014-Nov-21 20:34N 40°51' W 072°29'0 0.4
2014-Nov-21 19:33N 40°51' W 072°29'0 0.0
2014-Nov-21 18:33N 40°51' W 072°29'0 0.0
2014-Nov-21 17:33N 40°51' W 072°29'0 0.0
2014-Nov-21 16:33N 40°51' W 072°29'0 0.0
2014-Nov-21 15:33N 40°51' W 072°29'0 0.0
2014-Nov-21 14:33N 40°51' W 072°29'0 0.0
2014-Nov-21 13:33N 40°51' W 072°29'0 0.0
2014-Nov-21 12:33N 40°51' W 072°29'0 0.0
2014-Nov-21 11:33N 40°51' W 072°29'0 0.0
2014-Nov-21 10:33N 40°51' W 072°29'0 0.0
2014-Nov-21 09:33N 40°51' W 072°29'0 0.0
2014-Nov-21 08:34N 40°51' W 072°29'0 0.0
2014-Nov-21 07:34N 40°51' W 072°29'0 0.0
2014-Nov-21 06:34N 40°51' W 072°29'0 0.0
2014-Nov-21 05:34N 40°51' W 072°29'0 0.0
2014-Nov-21 04:33N 40°51' W 072°29'0 0.0
2014-Nov-21 03:33N 40°51' W 072°29'0 0.0
2014-Nov-21 02:34N 40°51' W 072°29'0 0.0
2014-Nov-21 01:33N 40°51' W 072°29'1 0.7
2014-Nov-21 00:33N 40°50' W 072°29'8 8.4
2014-Nov-20 23:33N 40°47' W 072°39'1 1.4
2014-Nov-20 22:33N 40°47' W 072°37'6 6.3
2014-Nov-20 21:33N 40°49' W 072°29'1 1.2
2014-Nov-20 20:33N 40°51' W 072°29'0 0.0
2014-Nov-20 19:34N 40°51' W 072°29'0 0.0
2014-Nov-20 18:34N 40°51' W 072°29'0 0.0
2014-Nov-20 17:33N 40°51' W 072°29'0 0.0
2014-Nov-20 16:33N 40°51' W 072°29'0 0.0
2014-Nov-20 15:33N 40°51' W 072°29'0 0.0
2014-Nov-20 14:33N 40°51' W 072°29'0 0.0
2014-Nov-20 13:33N 40°51' W 072°29'0 0.0
2014-Nov-20 12:33N 40°51' W 072°29'0 0.3
2014-Nov-20 11:33N 40°51' W 072°29'0 0.0
2014-Nov-20 10:33N 40°51' W 072°29'0 0.0
2014-Nov-20 09:33N 40°51' W 072°29'0 0.0
2014-Nov-20 08:33N 40°51' W 072°29'0 0.0
2014-Nov-20 07:34N 40°51' W 072°29'0 0.0
2014-Nov-20 06:34N 40°51' W 072°29'0 0.0
2014-Nov-20 05:34N 40°51' W 072°29'0 0.0
2014-Nov-20 04:34N 40°51' W 072°29'0 0.0
2014-Nov-20 03:33N 40°51' W 072°29'0 0.0
2014-Nov-20 02:34N 40°51' W 072°29'0 0.0
2014-Nov-20 01:34N 40°51' W 072°29'0 0.0
2014-Nov-20 00:34N 40°51' W 072°29'0 0.0
2014-Nov-19 23:33N 40°51' W 072°29'0 0.0
2014-Nov-19 22:33N 40°51' W 072°29'0 0.0
2014-Nov-19 21:33N 40°51' W 072°29'0 0.0
2014-Nov-19 20:33N 40°51' W 072°29'0 0.0
2014-Nov-19 19:33N 40°51' W 072°29'0 0.3
2014-Nov-19 18:34N 40°51' W 072°29'0 0.0
2014-Nov-19 17:33N 40°51' W 072°29'0 0.0
2014-Nov-19 16:34N 40°51' W 072°29'0 0.0
2014-Nov-19 15:33N 40°51' W 072°29'0 0.0
2014-Nov-19 14:33N 40°51' W 072°29'0 0.0
2014-Nov-19 13:33N 40°51' W 072°29'0 0.0
2014-Nov-19 12:33N 40°51' W 072°29'0 0.3
2014-Nov-19 11:33N 40°51' W 072°29'0 0.0
2014-Nov-19 10:33N 40°51' W 072°29'0 0.0
2014-Nov-19 09:33N 40°51' W 072°29'0 0.0
2014-Nov-19 08:33N 40°51' W 072°29'0 0.0
2014-Nov-19 07:33N 40°51' W 072°29'0 0.0
2014-Nov-19 06:33N 40°51' W 072°29'0 0.0
2014-Nov-19 05:33N 40°51' W 072°29'0 0.0
2014-Nov-19 04:33N 40°51' W 072°29'0 0.0
2014-Nov-19 03:33N 40°51' W 072°29'0 0.0
2014-Nov-19 02:33N 40°51' W 072°29'0 0.0
2014-Nov-19 01:33N 40°51' W 072°29'0 0.0
2014-Nov-19 00:33N 40°51' W 072°29'0 0.0
2014-Nov-18 23:33N 40°51' W 072°29'0 0.0
2014-Nov-18 22:33N 40°51' W 072°29'0 0.0
2014-Nov-18 21:33N 40°51' W 072°29'0 0.0
2014-Nov-18 20:33N 40°51' W 072°29'0 0.0
2014-Nov-18 19:33N 40°51' W 072°29'0 0.3
2014-Nov-18 18:33N 40°51' W 072°29'0 0.0
2014-Nov-18 17:33N 40°51' W 072°29'0 0.0
2014-Nov-18 16:33N 40°51' W 072°29'0 0.0
2014-Nov-18 15:33N 40°51' W 072°29'0 0.0
2014-Nov-18 14:33N 40°51' W 072°29'0 0.0
2014-Nov-18 13:33N 40°51' W 072°29'0 0.0
2014-Nov-18 12:33N 40°51' W 072°29'0 0.0
2014-Nov-18 11:33N 40°51' W 072°29'0 0.0
2014-Nov-18 10:33N 40°51' W 072°29'0 0.0
2014-Nov-18 09:33N 40°51' W 072°29'0 0.0
2014-Nov-18 08:33N 40°51' W 072°29'0 0.0
2014-Nov-18 07:33N 40°51' W 072°29'0 0.0
2014-Nov-18 06:33N 40°51' W 072°29'0 0.0
2014-Nov-18 05:33N 40°51' W 072°29'0 0.0
2014-Nov-18 04:33N 40°51' W 072°29'0 0.0
2014-Nov-18 03:33N 40°51' W 072°29'0 0.0
2014-Nov-18 02:33N 40°51' W 072°29'0 0.0
2014-Nov-18 01:33N 40°51' W 072°29'0 0.0
2014-Nov-18 00:33N 40°51' W 072°29'0 0.0
2014-Nov-17 23:33N 40°51' W 072°29'0 0.0
2014-Nov-17 22:33N 40°51' W 072°29'0 0.0
2014-Nov-17 21:33N 40°51' W 072°29'0 0.0
2014-Nov-17 20:33N 40°51' W 072°29'0 0.0
2014-Nov-17 19:33N 40°51' W 072°29'0 0.0
2014-Nov-17 18:33N 40°51' W 072°29'0 0.0
2014-Nov-17 17:33N 40°51' W 072°29'0 0.0
2014-Nov-17 16:34N 40°51' W 072°29'0 0.0
2014-Nov-17 15:33N 40°51' W 072°29'0 0.3
2014-Nov-17 14:34N 40°51' W 072°29'0 0.3
2014-Nov-17 13:34N 40°51' W 072°29'0 0.0
2014-Nov-17 12:34N 40°51' W 072°29'0 0.0
2014-Nov-17 11:33N 40°51' W 072°29'0 0.0
2014-Nov-17 10:33N 40°51' W 072°29'0 0.0
2014-Nov-17 09:33N 40°51' W 072°29'0 0.0
2014-Nov-17 08:33N 40°51' W 072°29'0 0.0
2014-Nov-17 07:33N 40°51' W 072°29'0 0.0
2014-Nov-17 06:33N 40°51' W 072°29'0 0.0
2014-Nov-17 05:33N 40°51' W 072°29'0 0.0
2014-Nov-17 04:33N 40°51' W 072°29'0 0.0
2014-Nov-17 03:33N 40°51' W 072°29'0 0.0
2014-Nov-17 02:33N 40°51' W 072°29'0 0.0
2014-Nov-17 01:33N 40°51' W 072°29'0 0.0
2014-Nov-17 00:33N 40°51' W 072°29'0 0.3
2014-Nov-16 23:33N 40°51' W 072°29'0 0.3
2014-Nov-16 22:33N 40°51' W 072°29'0 0.0
2014-Nov-16 21:33N 40°51' W 072°29'0 0.0
2014-Nov-16 20:33N 40°51' W 072°29'0 0.3
2014-Nov-16 19:34N 40°51' W 072°29'0 0.1
2014-Nov-16 18:33N 40°51' W 072°29'0 0.0
2014-Nov-16 17:33N 40°51' W 072°29'0 0.3
2014-Nov-16 16:33N 40°51' W 072°29'0 0.0
2014-Nov-16 15:33N 40°51' W 072°29'0 0.3
2014-Nov-16 14:33N 40°51' W 072°29'0 0.0
2014-Nov-16 13:33N 40°51' W 072°29'0 0.3
2014-Nov-16 12:33N 40°51' W 072°29'0 0.0
2014-Nov-16 11:33N 40°51' W 072°29'0 0.0
2014-Nov-16 10:33N 40°51' W 072°29'0 0.0
2014-Nov-16 09:33N 40°51' W 072°29'0 0.0
2014-Nov-16 08:33N 40°51' W 072°29'0 0.0
2014-Nov-16 07:33N 40°51' W 072°29'0 0.0
2014-Nov-16 06:33N 40°51' W 072°29'0 0.0
2014-Nov-16 05:33N 40°51' W 072°29'0 0.0
2014-Nov-16 04:33N 40°51' W 072°29'0 0.0
2014-Nov-16 03:33N 40°51' W 072°29'0 0.0
2014-Nov-16 02:33N 40°51' W 072°29'0 0.0
2014-Nov-16 01:33N 40°51' W 072°29'0 0.0
2014-Nov-16 00:33N 40°51' W 072°29'0 0.3
2014-Nov-15 23:33N 40°51' W 072°29'0 0.3
2014-Nov-15 22:33N 40°51' W 072°29'0 0.0
2014-Nov-15 21:33N 40°51' W 072°29'0 0.0
2014-Nov-15 20:33N 40°51' W 072°29'0 0.0
2014-Nov-15 19:33N 40°51' W 072°29'0 0.0
2014-Nov-15 18:33N 40°51' W 072°29'0 0.0
2014-Nov-15 17:33N 40°51' W 072°29'0 0.0
2014-Nov-15 16:33N 40°51' W 072°29'0 0.0
2014-Nov-15 15:33N 40°51' W 072°29'0 0.0
2014-Nov-15 14:33N 40°51' W 072°29'0 0.0
2014-Nov-15 13:33N 40°51' W 072°29'0 0.0
2014-Nov-15 12:33N 40°51' W 072°29'0 0.3
2014-Nov-15 11:33N 40°51' W 072°29'0 0.0
2014-Nov-15 10:33N 40°51' W 072°29'0 0.0
2014-Nov-15 09:33N 40°51' W 072°29'0 0.0
2014-Nov-15 08:33N 40°51' W 072°29'0 0.0
2014-Nov-15 07:33N 40°51' W 072°29'0 0.0
2014-Nov-15 06:33N 40°51' W 072°29'0 0.0
2014-Nov-15 05:33N 40°51' W 072°29'0 0.0
2014-Nov-15 04:33N 40°51' W 072°29'0 0.0
2014-Nov-15 03:33N 40°51' W 072°29'0 0.0
2014-Nov-15 02:33N 40°51' W 072°29'0 0.0
2014-Nov-15 01:33N 40°51' W 072°29'0 0.0
2014-Nov-15 00:33N 40°51' W 072°29'0 0.0
2014-Nov-14 23:33N 40°51' W 072°29'0 0.0
2014-Nov-14 22:33N 40°51' W 072°29'0 0.0
2014-Nov-14 21:33N 40°51' W 072°29'0 0.0
2014-Nov-14 20:33N 40°51' W 072°29'0 0.3
2014-Nov-14 19:33N 40°51' W 072°29'0 0.0
2014-Nov-14 18:33N 40°51' W 072°29'0 0.1
2014-Nov-14 17:33N 40°51' W 072°29'4 3.7
2014-Nov-14 16:33N 40°49' W 072°33'6 5.9
2014-Nov-14 15:33N 40°46' W 072°40'4 3.8
2014-Nov-14 14:33N 40°47' W 072°36'6 3.0
2014-Nov-14 12:33N 40°51' W 072°29'0 0.3
2014-Nov-14 11:33N 40°51' W 072°29'0 0.0
2014-Nov-14 10:34N 40°51' W 072°29'0 0.0
2014-Nov-14 09:33N 40°51' W 072°29'0 0.0
2014-Nov-14 08:33N 40°51' W 072°29'0 0.0
2014-Nov-14 07:33N 40°51' W 072°29'0 0.0
2014-Nov-14 06:33N 40°51' W 072°29'0 0.0
2014-Nov-14 05:33N 40°51' W 072°29'0 0.0
2014-Nov-14 04:33N 40°51' W 072°29'0 0.0
2014-Nov-14 03:33N 40°51' W 072°29'0 0.0
2014-Nov-14 02:34N 40°51' W 072°29'0 0.0
2014-Nov-14 01:33N 40°51' W 072°29'0 0.0
2014-Nov-14 00:33N 40°51' W 072°29'0 0.0
2014-Nov-13 23:33N 40°51' W 072°29'0 0.4
2014-Nov-13 22:33N 40°51' W 072°29'4 3.7
2014-Nov-13 21:33N 40°48' W 072°33'6 6.1
2014-Nov-13 20:33N 40°46' W 072°41'0 0.3
2014-Nov-13 19:33N 40°46' W 072°41'0 0.2
2014-Nov-13 18:33N 40°46' W 072°41'0 0.2
2014-Nov-13 17:33N 40°46' W 072°41'1 0.9
2014-Nov-13 16:33N 40°47' W 072°40'1 1.0
2014-Nov-13 15:33N 40°46' W 072°41'  
Track history (hours):
 
Tides and Currents Weather Stations Pressure Air Temp Water Temp Dewpoint Dewpoint Depression Visibility Wind Speed Wind Dir Waves Ship Positions

MV Sea Wolf

Owner: SEA WOLF MARINE TOWING & TRANSPORTATION, Bayonne, NJ. More information available from US FCC via Universal Licensing System and Coast Guard Vessel Documentation Center.

Last reported at 2014-Nov-23 14:33 UTC. Time now 2014-Nov-23 14:50 UTC.
Position N 40°51' W 072°29'.

Length 66 m; draft 10 m.

MMSI: 367002350.

Date/timePositionNaut miles runAvg speedWind from/ knotsBaromVisibWave heightAir tempDewpointWater temp
2014-Nov-23 14:33N 40°51' W 072°29'0 0.0
2014-Nov-23 13:33N 40°51' W 072°29'0 0.0
2014-Nov-23 12:33N 40°51' W 072°29'0 0.0
2014-Nov-23 11:33N 40°51' W 072°29'0 0.0
2014-Nov-23 10:33N 40°51' W 072°29'0 0.0
2014-Nov-23 09:33N 40°51' W 072°29'0 0.0
2014-Nov-23 08:33N 40°51' W 072°29'0 0.0
2014-Nov-23 07:33N 40°51' W 072°29'0 0.0
2014-Nov-23 06:33N 40°51' W 072°29'0 0.0
2014-Nov-23 05:33N 40°51' W 072°29'0 0.0
2014-Nov-23 04:33N 40°51' W 072°29'0 0.0
2014-Nov-23 03:33N 40°51' W 072°29'0 0.0
2014-Nov-23 02:33N 40°51' W 072°29'0 0.0
2014-Nov-23 01:33N 40°51' W 072°29'0 0.0
2014-Nov-23 00:33N 40°51' W 072°29'0 0.0
2014-Nov-22 23:33N 40°51' W 072°29'0 0.0
2014-Nov-22 22:33N 40°51' W 072°29'0 0.0
2014-Nov-22 21:33N 40°51' W 072°29'0 0.0
2014-Nov-22 20:33N 40°51' W 072°29'0 0.0
2014-Nov-22 19:33N 40°51' W 072°29'0 0.0
2014-Nov-22 18:33N 40°51' W 072°29'0 0.0
2014-Nov-22 17:33N 40°51' W 072°29'1 1.1
2014-Nov-22 16:33N 40°50' W 072°29'5 5.0
2014-Nov-22 15:33N 40°48' W 072°35'5 5.1
2014-Nov-22 14:32N 40°46' W 072°41'0 0.0
2014-Nov-22 13:33N 40°46' W 072°41'0 0.0
2014-Nov-22 12:33N 40°46' W 072°41'4 3.6
2014-Nov-22 11:33N 40°47' W 072°37'6 5.6
2014-Nov-22 10:33N 40°49' W 072°30'2 1.6
2014-Nov-22 09:33N 40°51' W 072°29'0 0.0
2014-Nov-22 08:33N 40°51' W 072°29'0 0.0
2014-Nov-22 07:33N 40°51' W 072°29'0 0.0
2014-Nov-22 06:34N 40°51' W 072°29'0 0.0
2014-Nov-22 05:33N 40°51' W 072°29'0 0.0
2014-Nov-22 04:34N 40°51' W 072°29'0 0.0
2014-Nov-22 03:33N 40°51' W 072°29'0 0.0
2014-Nov-22 02:33N 40°51' W 072°29'0 0.0
2014-Nov-22 01:33N 40°51' W 072°29'0 0.0
2014-Nov-22 00:33N 40°51' W 072°29'0 0.0
2014-Nov-21 23:33N 40°51' W 072°29'0 0.0
2014-Nov-21 22:33N 40°51' W 072°29'0 0.4
2014-Nov-21 21:34N 40°51' W 072°29'0 0.0
2014-Nov-21 20:34N 40°51' W 072°29'0 0.4
2014-Nov-21 19:33N 40°51' W 072°29'0 0.0
2014-Nov-21 18:33N 40°51' W 072°29'0 0.0
2014-Nov-21 17:33N 40°51' W 072°29'0 0.0
2014-Nov-21 16:33N 40°51' W 072°29'0 0.0
2014-Nov-21 15:33N 40°51' W 072°29'0 0.0
2014-Nov-21 14:33N 40°51' W 072°29'0 0.0
2014-Nov-21 13:33N 40°51' W 072°29'0 0.0
2014-Nov-21 12:33N 40°51' W 072°29'0 0.0
2014-Nov-21 11:33N 40°51' W 072°29'0 0.0
2014-Nov-21 10:33N 40°51' W 072°29'0 0.0
2014-Nov-21 09:33N 40°51' W 072°29'0 0.0
2014-Nov-21 08:34N 40°51' W 072°29'0 0.0
2014-Nov-21 07:34N 40°51' W 072°29'0 0.0
2014-Nov-21 06:34N 40°51' W 072°29'0 0.0
2014-Nov-21 05:34N 40°51' W 072°29'0 0.0
2014-Nov-21 04:33N 40°51' W 072°29'0 0.0
2014-Nov-21 03:33N 40°51' W 072°29'0 0.0
2014-Nov-21 02:34N 40°51' W 072°29'0 0.0
2014-Nov-21 01:33N 40°51' W 072°29'1 0.7
2014-Nov-21 00:33N 40°50' W 072°29'8 8.4
2014-Nov-20 23:33N 40°47' W 072°39'1 1.4
2014-Nov-20 22:33N 40°47' W 072°37'6 6.3
2014-Nov-20 21:33N 40°49' W 072°29'1 1.2
2014-Nov-20 20:33N 40°51' W 072°29'0 0.0
2014-Nov-20 19:34N 40°51' W 072°29'0 0.0
2014-Nov-20 18:34N 40°51' W 072°29'0 0.0
2014-Nov-20 17:33N 40°51' W 072°29'0 0.0
2014-Nov-20 16:33N 40°51' W 072°29'0 0.0
2014-Nov-20 15:33N 40°51' W 072°29'0 0.0
2014-Nov-20 14:33N 40°51' W 072°29'0 0.0
2014-Nov-20 13:33N 40°51' W 072°29'0 0.0
2014-Nov-20 12:33N 40°51' W 072°29'0 0.3
2014-Nov-20 11:33N 40°51' W 072°29'0 0.0
2014-Nov-20 10:33N 40°51' W 072°29'0 0.0
2014-Nov-20 09:33N 40°51' W 072°29'0 0.0
2014-Nov-20 08:33N 40°51' W 072°29'0 0.0
2014-Nov-20 07:34N 40°51' W 072°29'0 0.0
2014-Nov-20 06:34N 40°51' W 072°29'0 0.0
2014-Nov-20 05:34N 40°51' W 072°29'0 0.0
2014-Nov-20 04:34N 40°51' W 072°29'0 0.0
2014-Nov-20 03:33N 40°51' W 072°29'0 0.0
2014-Nov-20 02:34N 40°51' W 072°29'0 0.0
2014-Nov-20 01:34N 40°51' W 072°29'0 0.0
2014-Nov-20 00:34N 40°51' W 072°29'0 0.0
2014-Nov-19 23:33N 40°51' W 072°29'0 0.0
2014-Nov-19 22:33N 40°51' W 072°29'0 0.0
2014-Nov-19 21:33N 40°51' W 072°29'0 0.0
2014-Nov-19 20:33N 40°51' W 072°29'0 0.0
2014-Nov-19 19:33N 40°51' W 072°29'0 0.3
2014-Nov-19 18:34N 40°51' W 072°29'0 0.0
2014-Nov-19 17:33N 40°51' W 072°29'0 0.0
2014-Nov-19 16:34N 40°51' W 072°29'0 0.0
2014-Nov-19 15:33N 40°51' W 072°29'0 0.0
2014-Nov-19 14:33N 40°51' W 072°29'0 0.0
2014-Nov-19 13:33N 40°51' W 072°29'0 0.0
2014-Nov-19 12:33N 40°51' W 072°29'0 0.3
2014-Nov-19 11:33N 40°51' W 072°29'0 0.0
2014-Nov-19 10:33N 40°51' W 072°29'0 0.0
2014-Nov-19 09:33N 40°51' W 072°29'0 0.0
2014-Nov-19 08:33N 40°51' W 072°29'0 0.0
2014-Nov-19 07:33N 40°51' W 072°29'0 0.0
2014-Nov-19 06:33N 40°51' W 072°29'0 0.0
2014-Nov-19 05:33N 40°51' W 072°29'0 0.0
2014-Nov-19 04:33N 40°51' W 072°29'0 0.0
2014-Nov-19 03:33N 40°51' W 072°29'0 0.0
2014-Nov-19 02:33N 40°51' W 072°29'0 0.0
2014-Nov-19 01:33N 40°51' W 072°29'0 0.0
2014-Nov-19 00:33N 40°51' W 072°29'0 0.0
2014-Nov-18 23:33N 40°51' W 072°29'0 0.0
2014-Nov-18 22:33N 40°51' W 072°29'0 0.0
2014-Nov-18 21:33N 40°51' W 072°29'0 0.0
2014-Nov-18 20:33N 40°51' W 072°29'0 0.0
2014-Nov-18 19:33N 40°51' W 072°29'0 0.3
2014-Nov-18 18:33N 40°51' W 072°29'0 0.0
2014-Nov-18 17:33N 40°51' W 072°29'0 0.0
2014-Nov-18 16:33N 40°51' W 072°29'0 0.0
2014-Nov-18 15:33N 40°51' W 072°29'0 0.0
2014-Nov-18 14:33N 40°51' W 072°29'0 0.0
2014-Nov-18 13:33N 40°51' W 072°29'0 0.0
2014-Nov-18 12:33N 40°51' W 072°29'0 0.0
2014-Nov-18 11:33N 40°51' W 072°29'0 0.0
2014-Nov-18 10:33N 40°51' W 072°29'0 0.0
2014-Nov-18 09:33N 40°51' W 072°29'0 0.0
2014-Nov-18 08:33N 40°51' W 072°29'0 0.0
2014-Nov-18 07:33N 40°51' W 072°29'0 0.0
2014-Nov-18 06:33N 40°51' W 072°29'0 0.0
2014-Nov-18 05:33N 40°51' W 072°29'0 0.0
2014-Nov-18 04:33N 40°51' W 072°29'0 0.0
2014-Nov-18 03:33N 40°51' W 072°29'0 0.0
2014-Nov-18 02:33N 40°51' W 072°29'0 0.0
2014-Nov-18 01:33N 40°51' W 072°29'0 0.0
2014-Nov-18 00:33N 40°51' W 072°29'0 0.0
2014-Nov-17 23:33N 40°51' W 072°29'0 0.0
2014-Nov-17 22:33N 40°51' W 072°29'0 0.0
2014-Nov-17 21:33N 40°51' W 072°29'0 0.0
2014-Nov-17 20:33N 40°51' W 072°29'0 0.0
2014-Nov-17 19:33N 40°51' W 072°29'0 0.0
2014-Nov-17 18:33N 40°51' W 072°29'0 0.0
2014-Nov-17 17:33N 40°51' W 072°29'0 0.0
2014-Nov-17 16:34N 40°51' W 072°29'0 0.0
2014-Nov-17 15:33N 40°51' W 072°29'0 0.3
2014-Nov-17 14:34N 40°51' W 072°29'0 0.3
2014-Nov-17 13:34N 40°51' W 072°29'0 0.0
2014-Nov-17 12:34N 40°51' W 072°29'0 0.0
2014-Nov-17 11:33N 40°51' W 072°29'0 0.0
2014-Nov-17 10:33N 40°51' W 072°29'0 0.0
2014-Nov-17 09:33N 40°51' W 072°29'0 0.0
2014-Nov-17 08:33N 40°51' W 072°29'0 0.0
2014-Nov-17 07:33N 40°51' W 072°29'0 0.0
2014-Nov-17 06:33N 40°51' W 072°29'0 0.0
2014-Nov-17 05:33N 40°51' W 072°29'0 0.0
2014-Nov-17 04:33N 40°51' W 072°29'0 0.0
2014-Nov-17 03:33N 40°51' W 072°29'0 0.0
2014-Nov-17 02:33N 40°51' W 072°29'0 0.0
2014-Nov-17 01:33N 40°51' W 072°29'0 0.0
2014-Nov-17 00:33N 40°51' W 072°29'0 0.3
2014-Nov-16 23:33N 40°51' W 072°29'0 0.3
2014-Nov-16 22:33N 40°51' W 072°29'0 0.0
2014-Nov-16 21:33N 40°51' W 072°29'0 0.0
2014-Nov-16 20:33N 40°51' W 072°29'0 0.3
2014-Nov-16 19:34N 40°51' W 072°29'0 0.1
2014-Nov-16 18:33N 40°51' W 072°29'0 0.0
2014-Nov-16 17:33N 40°51' W 072°29'0 0.3
2014-Nov-16 16:33N 40°51' W 072°29'0 0.0
2014-Nov-16 15:33N 40°51' W 072°29'0 0.3
2014-Nov-16 14:33N 40°51' W 072°29'0 0.0
2014-Nov-16 13:33N 40°51' W 072°29'0 0.3
2014-Nov-16 12:33N 40°51' W 072°29'0 0.0
2014-Nov-16 11:33N 40°51' W 072°29'0 0.0
2014-Nov-16 10:33N 40°51' W 072°29'0 0.0
2014-Nov-16 09:33N 40°51' W 072°29'0 0.0
2014-Nov-16 08:33N 40°51' W 072°29'0 0.0
2014-Nov-16 07:33N 40°51' W 072°29'0 0.0
2014-Nov-16 06:33N 40°51' W 072°29'0 0.0
2014-Nov-16 05:33N 40°51' W 072°29'0 0.0
2014-Nov-16 04:33N 40°51' W 072°29'0 0.0
2014-Nov-16 03:33N 40°51' W 072°29'0 0.0
2014-Nov-16 02:33N 40°51' W 072°29'0 0.0
2014-Nov-16 01:33N 40°51' W 072°29'0 0.0
2014-Nov-16 00:33N 40°51' W 072°29'0 0.3
2014-Nov-15 23:33N 40°51' W 072°29'0 0.3
2014-Nov-15 22:33N 40°51' W 072°29'0 0.0
2014-Nov-15 21:33N 40°51' W 072°29'0 0.0
2014-Nov-15 20:33N 40°51' W 072°29'0 0.0
2014-Nov-15 19:33N 40°51' W 072°29'0 0.0
2014-Nov-15 18:33N 40°51' W 072°29'0 0.0
2014-Nov-15 17:33N 40°51' W 072°29'0 0.0
2014-Nov-15 16:33N 40°51' W 072°29'0 0.0
2014-Nov-15 15:33N 40°51' W 072°29'0 0.0
2014-Nov-15 14:33N 40°51' W 072°29'0 0.0
2014-Nov-15 13:33N 40°51' W 072°29'0 0.0
2014-Nov-15 12:33N 40°51' W 072°29'0 0.3
2014-Nov-15 11:33N 40°51' W 072°29'0 0.0
2014-Nov-15 10:33N 40°51' W 072°29'0 0.0
2014-Nov-15 09:33N 40°51' W 072°29'0 0.0
2014-Nov-15 08:33N 40°51' W 072°29'0 0.0
2014-Nov-15 07:33N 40°51' W 072°29'0 0.0
2014-Nov-15 06:33N 40°51' W 072°29'0 0.0
2014-Nov-15 05:33N 40°51' W 072°29'0 0.0
2014-Nov-15 04:33N 40°51' W 072°29'0 0.0
2014-Nov-15 03:33N 40°51' W 072°29'0 0.0
2014-Nov-15 02:33N 40°51' W 072°29'0 0.0
2014-Nov-15 01:33N 40°51' W 072°29'0 0.0
2014-Nov-15 00:33N 40°51' W 072°29'0 0.0
2014-Nov-14 23:33N 40°51' W 072°29'0 0.0
2014-Nov-14 22:33N 40°51' W 072°29'0 0.0
2014-Nov-14 21:33N 40°51' W 072°29'0 0.0
2014-Nov-14 20:33N 40°51' W 072°29'0 0.3
2014-Nov-14 19:33N 40°51' W 072°29'0 0.0
2014-Nov-14 18:33N 40°51' W 072°29'0 0.1
2014-Nov-14 17:33N 40°51' W 072°29'4 3.7
2014-Nov-14 16:33N 40°49' W 072°33'6 5.9
2014-Nov-14 15:33N 40°46' W 072°40'4 3.8
2014-Nov-14 14:33N 40°47' W 072°36'6 3.0
2014-Nov-14 12:33N 40°51' W 072°29'0 0.3
2014-Nov-14 11:33N 40°51' W 072°29'0 0.0
2014-Nov-14 10:34N 40°51' W 072°29'0 0.0
2014-Nov-14 09:33N 40°51' W 072°29'0 0.0
2014-Nov-14 08:33N 40°51' W 072°29'0 0.0
2014-Nov-14 07:33N 40°51' W 072°29'0 0.0
2014-Nov-14 06:33N 40°51' W 072°29'0 0.0
2014-Nov-14 05:33N 40°51' W 072°29'0 0.0
2014-Nov-14 04:33N 40°51' W 072°29'0 0.0
2014-Nov-14 03:33N 40°51' W 072°29'0 0.0
2014-Nov-14 02:34N 40°51' W 072°29'0 0.0
2014-Nov-14 01:33N 40°51' W 072°29'0 0.0
2014-Nov-14 00:33N 40°51' W 072°29'0 0.0
2014-Nov-13 23:33N 40°51' W 072°29'0 0.4
2014-Nov-13 22:33N 40°51' W 072°29'4 3.7
2014-Nov-13 21:33N 40°48' W 072°33'6 6.1
2014-Nov-13 20:33N 40°46' W 072°41'0 0.3
2014-Nov-13 19:33N 40°46' W 072°41'0 0.2
2014-Nov-13 18:33N 40°46' W 072°41'0 0.2
2014-Nov-13 17:33N 40°46' W 072°41'1 0.9
2014-Nov-13 16:33N 40°47' W 072°40'1 1.0
2014-Nov-13 15:33N 40°46' W 072°41'  

Dump ship's entire track history